Time;durP1;ratioP1;P1;durP2;ratioP2;P2;SDS_P1;SDS_P2;PMS_P1;PMS_P2;Temp;Humidity;BMP_temperature;BMP_pressure;BME280_temperature;BME280_humidity;BME280_pressure;Samples;Min_cycle;Max_cycle;Signal;HPM_P1;HPM_P2
2023/05/10 00:02:20;;;;;;;0.60;0.60;;;;;12.80;95382.00;;;;5034025;28;20203;-56
2023/05/10 00:04:48;;;;;;;0.60;0.60;;;;;12.80;95381.00;;;;5033474;28;20220;-56
2023/05/10 00:07:17;;;;;;;0.60;0.60;;;;;12.70;95384.00;;;;5033469;28;20235;-57
2023/05/10 00:09:44;;;;;;;0.47;0.47;;;;;12.60;95392.00;;;;5032209;28;20229;-55
2023/05/10 00:12:12;;;;;;;0.40;0.40;;;;;12.50;95389.00;;;;5033710;28;20208;-56
2023/05/10 00:14:39;;;;;;;0.50;0.50;;;;;12.50;95382.00;;;;5033305;28;20200;-59
2023/05/10 00:17:07;;;;;;;0.50;0.50;;;;;12.50;95378.00;;;;5034038;28;20528;-56
2023/05/10 00:19:34;;;;;;;0.50;0.50;;;;;12.50;95379.00;;;;5033736;28;20279;-55
2023/05/10 00:22:03;;;;;;;0.50;0.50;;;;;12.40;95380.00;;;;5033221;28;20193;-55
2023/05/10 00:24:30;;;;;;;0.50;0.50;;;;;12.30;95382.00;;;;5033404;28;20201;-56
2023/05/10 00:26:58;;;;;;;0.50;0.50;;;;;12.20;95388.00;;;;5033231;28;20668;-55
2023/05/10 00:29:25;;;;;;;0.50;0.50;;;;;12.10;95378.00;;;;5033141;28;20201;-56
2023/05/10 00:31:52;;;;;;;0.50;0.50;;;;;12.10;95374.00;;;;5034218;28;20201;-58
2023/05/10 00:34:20;;;;;;;0.57;0.57;;;;;12.30;95380.00;;;;5033190;28;20193;-56
2023/05/10 00:36:48;;;;;;;0.50;0.50;;;;;12.20;95381.00;;;;5033275;28;20221;-56
2023/05/10 00:39:16;;;;;;;0.50;0.50;;;;;12.20;95383.00;;;;5033082;28;20676;-56
2023/05/10 00:41:44;;;;;;;0.50;0.50;;;;;12.30;95397.00;;;;5033712;28;20643;-56
2023/05/10 00:44:11;;;;;;;0.50;0.50;;;;;12.30;95392.00;;;;5033077;28;20197;-55
2023/05/10 00:46:39;;;;;;;0.50;0.50;;;;;12.30;95403.00;;;;5032943;28;20213;-56
2023/05/10 00:49:06;;;;;;;0.50;0.50;;;;;12.20;95402.00;;;;5033000;28;20200;-55
2023/05/10 00:51:35;;;;;;;0.50;0.50;;;;;12.10;95397.00;;;;5032998;28;20203;-56
2023/05/10 00:54:02;;;;;;;0.40;0.40;;;;;12.10;95392.00;;;;5032954;28;20199;-56
2023/05/10 00:56:31;;;;;;;0.50;0.50;;;;;12.20;95389.00;;;;5031602;28;20232;-56
2023/05/10 00:58:59;;;;;;;0.53;0.53;;;;;12.30;95398.00;;;;5033230;28;20203;-56
2023/05/10 01:01:27;;;;;;;0.50;0.50;;;;;12.20;95396.00;;;;5031599;28;20212;-56
2023/05/10 01:03:55;;;;;;;0.50;0.50;;;;;12.10;95403.00;;;;5032861;28;20201;-56
2023/05/10 01:06:22;;;;;;;0.40;0.40;;;;;12.10;95401.00;;;;5031468;28;20227;-56
2023/05/10 01:08:50;;;;;;;0.57;0.57;;;;;12.20;95406.00;;;;5031599;28;20201;-56
2023/05/10 01:11:18;;;;;;;0.43;0.43;;;;;12.30;95406.00;;;;5032772;28;20296;-56
2023/05/10 01:13:53;;;;;;;0.60;0.60;;;;;12.20;95399.00;;;;5032779;28;20282;-56
2023/05/10 01:16:21;;;;;;;0.40;0.40;;;;;12.10;95411.00;;;;5035908;28;20223;-56
2023/05/10 01:18:49;;;;;;;0.40;0.40;;;;;12.10;95415.00;;;;5036556;28;20201;-56
2023/05/10 01:21:24;;;;;;;0.60;0.60;;;;;12.00;95412.00;;;;5036544;28;20200;-56
2023/05/10 01:24:28;;;;;;;0.50;0.50;;;;;12.00;95413.00;;;;5036770;28;20189;-56
2023/05/10 01:27:28;;;;;;;0.60;0.60;;;;;12.10;95421.00;;;;5036418;28;20195;-56
2023/05/10 01:30:34;;;;;;;0.50;0.50;;;;;12.00;95413.00;;;;5036725;28;20671;-56
2023/05/10 01:33:10;;;;;;;1.47;1.23;;;;;11.80;95409.00;;;;5021369;28;20208;-56
2023/05/10 01:35:42;;;;;;;0.87;0.87;;;;;11.90;95399.00;;;;5036190;28;20212;-56
2023/05/10 01:38:18;;;;;;;0.40;0.40;;;;;11.90;95407.00;;;;5035146;28;20213;-56
2023/05/10 01:40:55;;;;;;;0.50;0.50;;;;;11.90;95409.00;;;;5036791;28;20196;-56
2023/05/10 01:43:27;;;;;;;0.50;0.50;;;;;11.90;95406.00;;;;5036391;28;20236;-56
2023/05/10 01:46:04;;;;;;;0.60;0.60;;;;;11.80;95415.00;;;;5036363;28;20243;-56
2023/05/10 01:48:34;;;;;;;0.40;0.40;;;;;11.80;95416.00;;;;5036845;28;20259;-56
2023/05/10 01:51:02;;;;;;;0.50;0.50;;;;;11.80;95419.00;;;;5036241;28;20275;-56
2023/05/10 01:53:30;;;;;;;0.53;0.53;;;;;11.80;95421.00;;;;5035949;28;20193;-56
2023/05/10 01:55:59;;;;;;;0.60;0.60;;;;;11.70;95426.00;;;;5035806;28;20227;-56
2023/05/10 01:58:31;;;;;;;0.80;0.80;;;;;11.70;95424.00;;;;5034480;28;20221;-56
2023/05/10 02:01:00;;;;;;;0.50;0.50;;;;;11.60;95420.00;;;;5035801;28;20181;-56
2023/05/10 02:03:31;;;;;;;0.67;0.67;;;;;11.60;95415.00;;;;5035905;28;20668;-56
2023/05/10 02:06:00;;;;;;;0.60;0.60;;;;;11.60;95424.00;;;;5035679;28;20691;-56
2023/05/10 02:08:28;;;;;;;0.63;0.63;;;;;11.60;95429.00;;;;5035708;28;20327;-56
2023/05/10 02:10:57;;;;;;;0.60;0.60;;;;;11.50;95425.00;;;;5035506;28;20192;-56
2023/05/10 02:13:26;;;;;;;0.50;0.50;;;;;11.40;95431.00;;;;5035555;28;20200;-56
2023/05/10 02:15:55;;;;;;;0.50;0.50;;;;;11.50;95431.00;;;;5035441;28;20243;-56
2023/05/10 02:18:25;;;;;;;0.57;0.57;;;;;11.40;95432.00;;;;5035380;28;20224;-56
2023/05/10 02:20:55;;;;;;;0.50;0.50;;;;;11.40;95431.00;;;;5034080;28;20203;-56
2023/05/10 02:23:26;;;;;;;0.43;0.43;;;;;11.30;95436.00;;;;5035903;28;20197;-56
2023/05/10 02:25:56;;;;;;;0.50;0.50;;;;;11.30;95443.00;;;;5034956;28;20753;-56
2023/05/10 02:28:24;;;;;;;0.50;0.50;;;;;11.50;95446.00;;;;5034748;28;20185;-56
2023/05/10 02:30:54;;;;;;;0.57;0.57;;;;;11.50;95447.00;;;;5035540;28;20679;-56
2023/05/10 02:33:22;;;;;;;0.67;0.67;;;;;11.60;95444.00;;;;5035254;28;20201;-56
2023/05/10 02:35:51;;;;;;;0.80;0.80;;;;;11.70;95440.00;;;;5035692;28;20668;-56
2023/05/10 02:38:21;;;;;;;0.50;0.50;;;;;11.80;95445.00;;;;5035291;28;20586;-56
2023/05/10 02:40:51;;;;;;;0.50;0.50;;;;;11.60;95443.00;;;;5035029;28;20271;-56
2023/05/10 02:43:19;;;;;;;0.60;0.60;;;;;11.60;95447.00;;;;5035011;28;20197;-56
2023/05/10 02:45:48;;;;;;;0.50;0.50;;;;;11.50;95445.00;;;;5034872;28;20216;-56
2023/05/10 02:48:16;;;;;;;0.60;0.60;;;;;11.50;95448.00;;;;5034903;28;20189;-56
2023/05/10 02:50:46;;;;;;;0.70;0.70;;;;;11.50;95447.00;;;;5034899;28;20231;-56
2023/05/10 02:53:21;;;;;;;0.50;0.50;;;;;11.60;95443.00;;;;5035337;28;20247;-56
2023/05/10 02:55:53;;;;;;;0.50;0.50;;;;;11.40;95446.00;;;;5034880;28;20235;-56
2023/05/10 02:58:20;;;;;;;0.50;0.50;;;;;11.50;95450.00;;;;5034940;28;20211;-56
2023/05/10 03:00:48;;;;;;;0.80;0.80;;;;;11.60;95453.00;;;;5035164;28;20567;-56
2023/05/10 03:03:15;;;;;;;0.60;0.60;;;;;11.60;95454.00;;;;5035149;28;20200;-56
2023/05/10 03:05:43;;;;;;;0.60;0.60;;;;;11.70;95448.00;;;;5034798;28;20260;-56
2023/05/10 03:08:11;;;;;;;0.70;0.70;;;;;11.80;95454.00;;;;5034623;28;20246;-56
2023/05/10 03:10:48;;;;;;;0.40;0.40;;;;;11.70;95459.00;;;;5034800;28;20666;-56
2023/05/10 03:13:29;;;;;;;0.40;0.40;;;;;11.80;95467.00;;;;5034516;28;20181;-56
2023/05/10 03:16:02;;;;;;;0.73;0.73;;;;;11.60;95464.00;;;;5034431;28;20284;-56
2023/05/10 03:18:34;;;;;;;0.70;0.70;;;;;11.50;95466.00;;;;5034659;28;20205;-56
2023/05/10 03:21:05;;;;;;;0.60;0.60;;;;;11.50;95474.00;;;;5034435;28;20178;-56
2023/05/10 03:23:42;;;;;;;0.50;0.50;;;;;11.40;95465.00;;;;5034909;28;20243;-56
2023/05/10 03:26:09;;;;;;;0.50;0.50;;;;;11.40;95483.00;;;;5034198;28;20714;-56
2023/05/10 03:28:39;;;;;;;0.53;0.53;;;;;11.50;95465.00;;;;5034293;28;20199;-56
2023/05/10 03:31:08;;;;;;;0.57;0.57;;;;;11.50;95468.00;;;;5032818;28;20192;-56
2023/05/10 03:33:35;;;;;;;0.40;0.40;;;;;11.40;95477.00;;;;5034047;28;20216;-56
2023/05/10 03:36:02;;;;;;;0.50;0.50;;;;;11.30;95461.00;;;;5033904;28;20263;-56
2023/05/10 03:38:30;;;;;;;0.50;0.50;;;;;11.30;95469.00;;;;5033683;28;20722;-56
2023/05/10 03:40:57;;;;;;;0.63;0.63;;;;;11.30;95476.00;;;;5034140;28;20196;-56
2023/05/10 03:43:25;;;;;;;0.60;0.60;;;;;11.30;95476.00;;;;5034585;28;20196;-56
2023/05/10 03:45:54;;;;;;;0.50;0.50;;;;;11.30;95483.00;;;;5034417;28;20221;-56
2023/05/10 03:48:21;;;;;;;0.60;0.60;;;;;11.40;95476.00;;;;5034452;28;20663;-56
2023/05/10 03:50:49;;;;;;;0.50;0.50;;;;;11.40;95484.00;;;;5034438;28;20255;-56
2023/05/10 03:53:17;;;;;;;0.50;0.50;;;;;11.30;95488.00;;;;5033914;28;20628;-56
2023/05/10 03:55:44;;;;;;;0.50;0.50;;;;;11.30;95477.00;;;;5033629;28;20220;-56
2023/05/10 03:58:12;;;;;;;0.50;0.50;;;;;11.10;95480.00;;;;5033508;28;20216;-55
2023/05/10 04:00:43;;;;;;;0.47;0.47;;;;;11.10;95484.00;;;;5033471;28;20279;-55
2023/05/10 04:03:12;;;;;;;0.60;0.60;;;;;11.10;95478.00;;;;5033825;28;20609;-56
2023/05/10 04:05:40;;;;;;;0.87;0.87;;;;;11.00;95481.00;;;;5033379;28;20221;-55
2023/05/10 04:08:07;;;;;;;0.50;0.50;;;;;11.20;95477.00;;;;5033602;28;20559;-55
2023/05/10 04:10:35;;;;;;;0.50;0.50;;;;;11.10;95489.00;;;;5033657;28;20648;-56
2023/05/10 04:13:02;;;;;;;0.60;0.60;;;;;11.10;95485.00;;;;5033627;28;20197;-56
2023/05/10 04:15:30;;;;;;;0.60;0.60;;;;;11.10;95485.00;;;;5033172;28;20212;-57
2023/05/10 04:17:57;;;;;;;0.60;0.60;;;;;11.00;95487.00;;;;5031985;28;20223;-56
2023/05/10 04:20:26;;;;;;;0.60;0.60;;;;;11.00;95487.00;;;;5033251;28;20242;-56
2023/05/10 04:22:53;;;;;;;0.63;0.63;;;;;11.10;95489.00;;;;5033233;28;20193;-56
2023/05/10 04:25:21;;;;;;;2.73;0.70;;;;;11.30;95486.00;;;;5033142;28;20216;-56
2023/05/10 04:27:48;;;;;;;0.60;0.60;;;;;11.30;95483.00;;;;5033704;28;20193;-56
2023/05/10 04:30:16;;;;;;;0.53;0.53;;;;;11.30;95490.00;;;;5033241;28;20201;-58
2023/05/10 04:32:43;;;;;;;0.70;0.70;;;;;11.30;95488.00;;;;5033125;28;20196;-57
2023/05/10 04:35:11;;;;;;;0.60;0.60;;;;;11.20;95491.00;;;;5033393;28;20309;-56
2023/05/10 04:37:39;;;;;;;0.90;0.90;;;;;11.30;95490.00;;;;5033034;28;20224;-56
2023/05/10 04:40:08;;;;;;;2.10;0.97;;;;;11.40;95494.00;;;;5033002;28;20231;-56
2023/05/10 04:42:36;;;;;;;0.63;0.63;;;;;11.40;95496.00;;;;5033049;28;20214;-56
2023/05/10 04:45:03;;;;;;;0.60;0.60;;;;;11.40;95496.00;;;;5032894;28;20213;-56
2023/05/10 04:47:31;;;;;;;0.50;0.50;;;;;11.60;95494.00;;;;5033282;28;20193;-56
2023/05/10 04:49:58;;;;;;;0.40;0.40;;;;;11.60;95488.00;;;;5034186;28;20199;-56
2023/05/10 04:52:26;;;;;;;0.60;0.60;;;;;11.70;95492.00;;;;5037318;28;20554;-56
2023/05/10 04:54:54;;;;;;;0.57;0.57;;;;;11.60;95496.00;;;;5035503;28;20224;-56
2023/05/10 04:57:22;;;;;;;0.63;0.63;;;;;11.60;95490.00;;;;5036929;28;20196;-56
2023/05/10 04:59:49;;;;;;;0.60;0.60;;;;;11.50;95497.00;;;;5036951;28;20196;-56
2023/05/10 05:02:17;;;;;;;0.70;0.70;;;;;11.50;95491.00;;;;5035657;28;20200;-56
2023/05/10 05:04:44;;;;;;;0.63;0.63;;;;;11.40;95497.00;;;;5036785;28;20281;-56
2023/05/10 05:07:12;;;;;;;0.70;0.70;;;;;11.50;95497.00;;;;5036794;28;20196;-56
2023/05/10 05:09:39;;;;;;;0.50;0.50;;;;;11.70;95505.00;;;;5036817;28;20192;-55
2023/05/10 05:12:13;;;;;;;1.70;1.23;;;;;11.80;95502.00;;;;5036805;28;20193;-56
2023/05/10 05:14:41;;;;;;;0.60;0.60;;;;;11.70;95501.00;;;;5036627;28;20185;-56
2023/05/10 05:17:08;;;;;;;0.50;0.50;;;;;11.70;95508.00;;;;5036911;28;20631;-56
2023/05/10 05:19:35;;;;;;;0.67;0.67;;;;;11.80;95507.00;;;;5036545;28;20223;-55
2023/05/10 05:22:03;;;;;;;0.50;0.50;;;;;12.00;95511.00;;;;5036589;28;20678;-56
2023/05/10 05:24:35;;;;;;;0.60;0.60;;;;;12.00;95517.00;;;;5036681;28;20204;-56
2023/05/10 05:27:03;;;;;;;0.80;0.80;;;;;12.00;95510.00;;;;5037013;28;20239;-56
2023/05/10 05:29:31;;;;;;;0.50;0.50;;;;;12.10;95515.00;;;;5035065;28;20284;-56
2023/05/10 05:31:59;;;;;;;0.80;0.80;;;;;12.10;95514.00;;;;5036596;28;20200;-56
2023/05/10 05:34:26;;;;;;;0.60;0.60;;;;;12.10;95520.00;;;;5036303;28;20292;-57
2023/05/10 05:36:54;;;;;;;0.50;0.50;;;;;12.20;95510.00;;;;5036589;28;20188;-56
2023/05/10 05:39:22;;;;;;;0.50;0.50;;;;;12.20;95506.00;;;;5036690;28;20223;-56
2023/05/10 05:41:49;;;;;;;0.60;0.60;;;;;12.30;95507.00;;;;5036230;28;20189;-56
2023/05/10 05:44:17;;;;;;;0.70;0.70;;;;;12.40;95514.00;;;;5036121;28;20207;-56
2023/05/10 05:46:45;;;;;;;0.50;0.50;;;;;12.50;95523.00;;;;5036023;28;20228;-56
2023/05/10 05:49:13;;;;;;;0.50;0.50;;;;;12.40;95517.00;;;;5035971;28;20192;-56
2023/05/10 05:51:40;;;;;;;0.60;0.60;;;;;12.40;95524.00;;;;5035988;28;20251;-56
2023/05/10 05:54:08;;;;;;;0.50;0.50;;;;;12.30;95527.00;;;;5035985;28;20667;-56
2023/05/10 05:56:35;;;;;;;0.70;0.70;;;;;12.50;95524.00;;;;5035865;28;20216;-55
2023/05/10 05:59:03;;;;;;;0.40;0.40;;;;;12.40;95522.00;;;;5035875;28;20216;-55
2023/05/10 06:01:31;;;;;;;0.90;0.90;;;;;12.20;95541.00;;;;5035913;28;20192;-56
2023/05/10 06:04:00;;;;;;;0.70;0.70;;;;;12.10;95546.00;;;;5036123;28;20547;-55
2023/05/10 06:06:27;;;;;;;0.80;0.80;;;;;12.20;95544.00;;;;5036164;28;20666;-55
2023/05/10 06:08:55;;;;;;;0.50;0.50;;;;;12.20;95535.00;;;;5035703;28;20185;-56
2023/05/10 06:11:22;;;;;;;0.50;0.50;;;;;11.90;95543.00;;;;5035661;28;20200;-56
2023/05/10 06:13:50;;;;;;;0.80;0.80;;;;;12.00;95542.00;;;;5035613;28;20201;-56
2023/05/10 06:16:17;;;;;;;0.70;0.70;;;;;11.80;95541.00;;;;5035437;28;20217;-56
2023/05/10 06:18:45;;;;;;;0.53;0.53;;;;;11.90;95539.00;;;;5013611;28;20229;-55
2023/05/10 06:21:14;;;;;;;0.73;0.73;;;;;12.30;95543.00;;;;5012271;28;20204;-55
2023/05/10 06:23:42;;;;;;;0.60;0.60;;;;;12.40;95541.00;;;;5015293;28;20228;-55
2023/05/10 06:26:09;;;;;;;0.60;0.60;;;;;12.40;95554.00;;;;5017247;28;20224;-55
2023/05/10 06:28:38;;;;;;;0.70;0.70;;;;;12.70;95554.00;;;;5020036;28;20280;-55
2023/05/10 06:31:05;;;;;;;0.50;0.50;;;;;12.40;95558.00;;;;5022191;28;20672;-56
2023/05/10 06:33:33;;;;;;;0.70;0.70;;;;;12.50;95559.00;;;;5033778;28;20232;-55
2023/05/10 06:36:00;;;;;;;0.70;0.70;;;;;12.80;95557.00;;;;5033208;28;20224;-55
2023/05/10 06:38:29;;;;;;;0.67;0.67;;;;;13.00;95557.00;;;;5031103;28;20225;-55
2023/05/10 06:40:56;;;;;;;1.00;1.00;;;;;13.20;95560.00;;;;5012692;28;20201;-55
2023/05/10 06:43:24;;;;;;;0.50;0.50;;;;;13.30;95556.00;;;;5013752;28;20561;-55
2023/05/10 06:45:52;;;;;;;0.60;0.60;;;;;13.40;95553.00;;;;5012776;28;20288;-55
2023/05/10 06:48:19;;;;;;;0.60;0.60;;;;;13.60;95553.00;;;;5014020;28;20256;-55
2023/05/10 06:50:47;;;;;;;2.00;1.57;;;;;13.30;95563.00;;;;5032465;28;20200;-58
2023/05/10 06:53:15;;;;;;;0.70;0.70;;;;;13.10;95561.00;;;;5033157;28;20204;-55
2023/05/10 06:55:43;;;;;;;0.90;0.90;;;;;13.10;95555.00;;;;5032242;28;20602;-55
2023/05/10 06:58:11;;;;;;;0.60;0.60;;;;;13.20;95558.00;;;;5033080;28;20228;-55
2023/05/10 07:00:40;;;;;;;0.50;0.50;;;;;12.90;95551.00;;;;5032317;28;20201;-55
2023/05/10 07:03:07;;;;;;;0.50;0.50;;;;;12.70;95551.00;;;;5028239;28;20204;-55
2023/05/10 07:05:35;;;;;;;0.60;0.60;;;;;13.00;95554.00;;;;5012843;28;20309;-55
2023/05/10 07:08:02;;;;;;;0.50;0.50;;;;;13.10;95559.00;;;;5013252;28;20201;-55
2023/05/10 07:10:30;;;;;;;0.60;0.60;;;;;13.20;95556.00;;;;5012542;28;20228;-55
2023/05/10 07:12:58;;;;;;;0.50;0.50;;;;;13.30;95550.00;;;;5012380;28;20275;-55
2023/05/10 07:15:26;;;;;;;0.60;0.60;;;;;13.30;95557.00;;;;5012307;28;20225;-55
2023/05/10 07:17:53;;;;;;;0.40;0.40;;;;;13.50;95558.00;;;;5012962;28;20194;-55
2023/05/10 07:20:21;;;;;;;1.00;1.00;;;;;13.50;95567.00;;;;5020510;28;20230;-56
2023/05/10 07:22:48;;;;;;;0.50;0.50;;;;;13.40;95568.00;;;;5032862;28;20205;-56
2023/05/10 07:25:16;;;;;;;0.50;0.50;;;;;13.50;95558.00;;;;5026336;28;20237;-55
2023/05/10 07:27:43;;;;;;;0.40;0.40;;;;;13.20;95569.00;;;;5013320;28;20197;-56
2023/05/10 07:30:13;;;;;;;0.50;0.50;;;;;13.20;95572.00;;;;5009249;28;20193;-56
2023/05/10 07:32:41;;;;;;;1.27;1.27;;;;;13.20;95565.00;;;;5012973;28;20208;-56
2023/05/10 07:35:09;;;;;;;0.50;0.50;;;;;13.20;95560.00;;;;5012056;28;20217;-56
2023/05/10 07:37:37;;;;;;;0.40;0.40;;;;;13.00;95565.00;;;;5012278;28;20193;-56
2023/05/10 07:40:04;;;;;;;0.57;0.57;;;;;13.10;95557.00;;;;5011764;28;20280;-55
2023/05/10 07:42:32;;;;;;;0.60;0.60;;;;;13.40;95546.00;;;;5012529;28;20198;-55
2023/05/10 07:44:59;;;;;;;0.60;0.60;;;;;13.20;95565.00;;;;5011632;28;20227;-55
2023/05/10 07:47:28;;;;;;;0.57;0.57;;;;;13.40;95554.00;;;;5012253;28;20648;-55
2023/05/10 07:49:55;;;;;;;0.60;0.60;;;;;13.80;95559.00;;;;5011608;28;20200;-55
2023/05/10 07:52:23;;;;;;;0.50;0.50;;;;;13.90;95553.00;;;;5012353;28;20194;-55
2023/05/10 07:54:50;;;;;;;0.53;0.53;;;;;13.70;95563.00;;;;5011353;28;20272;-56
2023/05/10 07:57:18;;;;;;;0.50;0.50;;;;;14.00;95566.00;;;;5010750;28;20653;-55
2023/05/10 07:59:46;;;;;;;0.60;0.60;;;;;13.50;95571.00;;;;5011644;28;20271;-56
2023/05/10 08:02:13;;;;;;;0.60;0.60;;;;;13.70;95567.00;;;;5011261;28;20205;-56
2023/05/10 08:04:42;;;;;;;0.50;0.50;;;;;13.60;95573.00;;;;5011428;28;20198;-55
2023/05/10 08:07:10;;;;;;;0.50;0.50;;;;;13.50;95582.00;;;;5012008;28;20202;-55
2023/05/10 08:09:38;;;;;;;0.50;0.50;;;;;13.40;95580.00;;;;5010025;28;20240;-57
2023/05/10 08:12:06;;;;;;;0.53;0.53;;;;;13.20;95578.00;;;;5012093;28;20269;-55
2023/05/10 08:14:33;;;;;;;0.50;0.50;;;;;13.50;95575.00;;;;5011192;28;20202;-55
2023/05/10 08:17:01;;;;;;;0.60;0.60;;;;;13.70;95586.00;;;;5011891;28;20656;-55
2023/05/10 08:19:28;;;;;;;0.50;0.50;;;;;13.60;95589.00;;;;5010947;28;20217;-55
2023/05/10 08:21:57;;;;;;;0.50;0.50;;;;;13.90;95581.00;;;;5012272;28;20556;-55
2023/05/10 08:24:24;;;;;;;0.50;0.50;;;;;14.00;95583.00;;;;5010233;28;20189;-55
2023/05/10 08:26:52;;;;;;;0.80;0.80;;;;;14.30;95588.00;;;;5011968;28;20557;-55
2023/05/10 08:29:19;;;;;;;0.50;0.50;;;;;14.50;95576.00;;;;5011355;28;20559;-55
2023/05/10 08:31:47;;;;;;;0.60;0.60;;;;;14.70;95588.00;;;;5009416;28;20251;-55
2023/05/10 08:34:14;;;;;;;0.40;0.40;;;;;14.90;95589.00;;;;5011519;28;20193;-55
2023/05/10 08:36:42;;;;;;;0.60;0.60;;;;;15.20;95595.00;;;;5011634;28;20220;-55
2023/05/10 08:39:11;;;;;;;0.50;0.50;;;;;15.50;95609.00;;;;5010895;28;20223;-55
2023/05/10 08:41:40;;;;;;;0.70;0.70;;;;;14.30;95613.00;;;;5011825;28;20316;-55
2023/05/10 08:44:10;;;;;;;0.60;0.60;;;;;14.20;95606.00;;;;5009679;28;20213;-55
2023/05/10 08:46:42;;;;;;;0.77;0.77;;;;;13.90;95612.00;;;;5011531;28;20225;-55
2023/05/10 08:49:12;;;;;;;0.70;0.70;;;;;14.00;95614.00;;;;5011001;28;20268;-55
2023/05/10 08:51:43;;;;;;;0.50;0.50;;;;;13.90;95614.00;;;;5011671;28;20204;-55
2023/05/10 08:54:12;;;;;;;0.53;0.53;;;;;14.20;95618.00;;;;5011487;28;20197;-55
2023/05/10 08:56:40;;;;;;;0.50;0.50;;;;;13.90;95615.00;;;;5006970;28;20229;-56
2023/05/10 08:59:07;;;;;;;0.50;0.50;;;;;14.20;95617.00;;;;5011010;28;20641;-55
2023/05/10 09:01:37;;;;;;;0.50;0.50;;;;;14.40;95615.00;;;;5011536;28;20205;-55
2023/05/10 09:04:05;;;;;;;0.57;0.57;;;;;14.70;95622.00;;;;5026408;28;20562;-55
2023/05/10 09:06:33;;;;;;;0.50;0.50;;;;;14.60;95633.00;;;;5031154;28;20243;-55
2023/05/10 09:09:03;;;;;;;0.40;0.40;;;;;14.70;95629.00;;;;5030186;28;20192;-55
2023/05/10 09:11:32;;;;;;;0.40;0.40;;;;;14.20;95632.00;;;;5031189;28;20195;-54
2023/05/10 09:13:59;;;;;;;0.50;0.50;;;;;14.20;95618.00;;;;5030646;28;20197;-55
2023/05/10 09:16:27;;;;;;;0.50;0.50;;;;;14.20;95628.00;;;;5030627;28;20290;-55
2023/05/10 09:18:54;;;;;;;0.50;0.50;;;;;14.00;95629.00;;;;5010610;28;20221;-55
2023/05/10 09:21:22;;;;;;;0.50;0.50;;;;;14.20;95619.00;;;;5010871;28;20221;-55
2023/05/10 09:23:50;;;;;;;0.80;0.80;;;;;14.60;95625.00;;;;5009304;28;20684;-55
2023/05/10 09:26:22;;;;;;;0.50;0.50;;;;;14.80;95626.00;;;;5011218;28;20564;-55
2023/05/10 09:28:56;;;;;;;0.47;0.47;;;;;15.00;95621.00;;;;5011018;28;20194;-55
2023/05/10 09:31:24;;;;;;;0.40;0.40;;;;;15.00;95624.00;;;;5010882;28;20189;-55
2023/05/10 09:33:52;;;;;;;0.50;0.50;;;;;15.20;95626.00;;;;5009640;28;20213;-55
2023/05/10 09:36:20;;;;;;;0.50;0.50;;;;;14.90;95625.00;;;;5020273;28;20225;-55
2023/05/10 09:38:48;;;;;;;1.10;1.10;;;;;14.60;95619.00;;;;5034178;28;20201;-55
2023/05/10 09:41:20;;;;;;;0.90;0.90;;;;;15.00;95619.00;;;;5031034;28;20228;-55
2023/05/10 09:43:47;;;;;;;0.53;0.53;;;;;15.10;95621.00;;;;5014747;28;20201;-55
2023/05/10 09:46:17;;;;;;;0.40;0.40;;;;;14.70;95637.00;;;;5014312;28;20245;-56
2023/05/10 09:48:46;;;;;;;0.53;0.53;;;;;14.40;95636.00;;;;5013055;28;20204;-55
2023/05/10 09:51:21;;;;;;;0.40;0.40;;;;;14.40;95643.00;;;;5012819;28;20983;-56
2023/05/10 09:53:50;;;;;;;0.60;0.60;;;;;15.00;95630.00;;;;5014094;28;20197;-55
2023/05/10 09:56:35;;;;;;;0.60;0.60;;;;;15.30;95631.00;;;;5013537;28;20236;-55
2023/05/10 09:59:06;;;;;;;0.50;0.50;;;;;15.10;95639.00;;;;5014086;28;20197;-55
2023/05/10 10:01:35;;;;;;;0.60;0.60;;;;;14.90;95650.00;;;;5014097;28;20205;-55
2023/05/10 10:04:05;;;;;;;0.50;0.50;;;;;14.70;95651.00;;;;5013962;28;20280;-55
2023/05/10 10:06:38;;;;;;;0.60;0.60;;;;;14.80;95662.00;;;;5013800;28;20220;-55
2023/05/10 10:09:06;;;;;;;0.60;0.60;;;;;14.10;95679.00;;;;5007969;28;20194;-56
2023/05/10 10:11:35;;;;;;;0.50;0.50;;;;;13.60;95682.00;;;;5010545;28;20669;-55
2023/05/10 10:14:02;;;;;;;0.50;0.50;;;;;13.20;95701.00;;;;5013551;28;20229;-55
2023/05/10 10:16:31;;;;;;;0.50;0.50;;;;;12.60;95688.00;;;;5013929;28;20221;-55
2023/05/10 10:19:00;;;;;;;0.60;0.60;;;;;12.20;95685.00;;;;5013521;28;20201;-55
2023/05/10 10:21:27;;;;;;;0.53;0.53;;;;;12.40;95690.00;;;;5013578;28;20197;-55
2023/05/10 10:23:55;;;;;;;0.47;0.47;;;;;12.60;95687.00;;;;5012501;28;20251;-55
2023/05/10 10:26:23;;;;;;;0.60;0.60;;;;;12.50;95683.00;;;;5013379;28;20296;-55
2023/05/10 10:28:58;;;;;;;0.50;0.50;;;;;12.60;95679.00;;;;5013707;28;20205;-55
2023/05/10 10:31:33;;;;;;;0.50;0.50;;;;;12.60;95680.00;;;;5012800;28;20196;-55
2023/05/10 10:34:07;;;;;;;0.47;0.47;;;;;12.60;95688.00;;;;5013183;28;20193;-55
2023/05/10 10:36:40;;;;;;;0.50;0.50;;;;;12.70;95681.00;;;;5012090;28;20283;-55
2023/05/10 10:39:11;;;;;;;0.43;0.43;;;;;13.00;95682.00;;;;5013262;28;20200;-55
2023/05/10 10:41:43;;;;;;;0.70;0.70;;;;;13.00;95683.00;;;;5012155;28;20201;-55
2023/05/10 10:44:37;;;;;;;0.43;0.43;;;;;13.00;95675.00;;;;5013036;28;20218;-55
2023/05/10 10:47:24;;;;;;;0.40;0.40;;;;;13.20;95671.00;;;;5012469;28;20274;-55
2023/05/10 10:50:05;;;;;;;0.60;0.60;;;;;13.60;95682.00;;;;5013468;28;20556;-55
2023/05/10 10:52:34;;;;;;;0.40;0.40;;;;;13.60;95674.00;;;;5013239;28;20190;-56
2023/05/10 10:55:03;;;;;;;0.50;0.50;;;;;13.80;95678.00;;;;5012823;28;20220;-56
2023/05/10 10:57:34;;;;;;;1.23;1.23;;;;;13.80;95684.00;;;;5013038;28;20568;-55
2023/05/10 11:00:21;;;;;;;0.50;0.50;;;;;14.30;95685.00;;;;5013565;28;20205;-56
2023/05/10 11:02:51;;;;;;;0.50;0.50;;;;;14.60;95682.00;;;;5013031;28;20652;-56
2023/05/10 11:05:45;;;;;;;0.40;0.40;;;;;14.70;95679.00;;;;5010187;28;20645;-57
2023/05/10 11:08:17;;;;;;;0.50;0.50;;;;;14.50;95681.00;;;;5013280;28;20664;-57
2023/05/10 11:11:06;;;;;;;0.50;0.50;;;;;15.00;95672.00;;;;5012434;28;20185;-57
2023/05/10 11:13:38;;;;;;;0.60;0.60;;;;;15.20;95671.00;;;;5013486;28;20236;-55
2023/05/10 11:16:17;;;;;;;0.80;0.80;;;;;15.40;95666.00;;;;5012243;28;20222;-55
2023/05/10 11:18:59;;;;;;;0.43;0.43;;;;;15.20;95668.00;;;;5013266;28;20205;-55
2023/05/10 11:21:28;;;;;;;0.47;0.47;;;;;15.10;95676.00;;;;5011196;28;20201;-56
2023/05/10 11:23:57;;;;;;;0.50;0.50;;;;;14.70;95670.00;;;;5013057;28;20198;-56
2023/05/10 11:26:26;;;;;;;0.50;0.50;;;;;14.60;95664.00;;;;5012000;28;20691;-56
2023/05/10 11:28:55;;;;;;;0.40;0.40;;;;;14.70;95679.00;;;;5011600;28;20207;-56
2023/05/10 11:31:26;;;;;;;3.93;0.70;;;;;14.60;95665.00;;;;5012487;28;20197;-55
2023/05/10 11:33:55;;;;;;;0.77;0.77;;;;;14.60;95655.00;;;;5011311;28;20300;-56
2023/05/10 11:36:25;;;;;;;0.50;0.50;;;;;14.60;95666.00;;;;5012332;28;20248;-56
2023/05/10 11:38:54;;;;;;;0.57;0.57;;;;;15.00;95674.00;;;;5012334;28;20197;-55
2023/05/10 11:41:23;;;;;;;0.50;0.50;;;;;15.20;95665.00;;;;5010718;28;20716;-56
2023/05/10 11:43:52;;;;;;;2.10;1.10;;;;;15.40;95675.00;;;;5012229;28;20205;-56
2023/05/10 11:46:21;;;;;;;0.50;0.50;;;;;15.20;95675.00;;;;5013533;28;20225;-56
2023/05/10 11:48:50;;;;;;;0.80;0.80;;;;;14.70;95675.00;;;;5030599;28;20205;-56
2023/05/10 11:51:22;;;;;;;0.50;0.50;;;;;14.30;95682.00;;;;5031791;28;20275;-55
2023/05/10 11:53:51;;;;;;;0.53;0.53;;;;;14.60;95672.00;;;;5021860;28;20307;-56
2023/05/10 11:56:20;;;;;;;0.70;0.70;;;;;14.70;95686.00;;;;5031449;28;20256;-56
2023/05/10 11:58:54;;;;;;;0.50;0.50;;;;;14.40;95684.00;;;;5030154;28;20343;-56
2023/05/10 12:01:22;;;;;;;0.70;0.70;;;;;14.80;95686.00;;;;5031508;28;20211;-56
2023/05/10 12:03:50;;;;;;;0.80;0.80;;;;;14.90;95685.00;;;;5031450;28;20296;-56
2023/05/10 12:06:19;;;;;;;0.60;0.60;;;;;14.80;95687.00;;;;5012865;28;20217;-56
2023/05/10 12:08:47;;;;;;;0.60;0.60;;;;;15.00;95687.00;;;;5011860;28;20201;-56
2023/05/10 12:11:16;;;;;;;0.60;0.60;;;;;15.00;95681.00;;;;5011989;28;20556;-55
2023/05/10 12:13:46;;;;;;;0.50;0.50;;;;;14.90;95692.00;;;;5011731;28;20202;-56
2023/05/10 12:16:15;;;;;;;0.40;0.40;;;;;14.60;95687.00;;;;5011693;28;20260;-56
2023/05/10 12:18:43;;;;;;;0.43;0.43;;;;;14.80;95693.00;;;;5011224;28;20247;-55
2023/05/10 12:21:12;;;;;;;0.60;0.60;;;;;14.90;95689.00;;;;5011745;28;20649;-56
2023/05/10 12:23:40;;;;;;;0.40;0.40;;;;;14.80;95696.00;;;;5007581;28;20626;-56
2023/05/10 12:26:09;;;;;;;0.60;0.60;;;;;14.50;95684.00;;;;5011955;28;20549;-57
2023/05/10 12:28:37;;;;;;;0.60;0.60;;;;;14.80;95693.00;;;;5021814;28;20205;-56
2023/05/10 12:31:07;;;;;;;0.67;0.67;;;;;14.60;95692.00;;;;5031359;28;20193;-56